sensor_id;sensor_type;location;lat;lon;timestamp;pressure;altitude;pressure_sealevel;temperature;humidity
26823;BME280;14852;51.910;8.878;2022-10-04T00:01:55;100561.59;;;11.58;61.17
26823;BME280;14852;51.910;8.878;2022-10-04T00:04:59;100562.38;;;11.60;61.06
26823;BME280;14852;51.910;8.878;2022-10-04T00:07:45;100550.22;;;11.60;60.87
26823;BME280;14852;51.910;8.878;2022-10-04T00:10:20;100545.09;;;11.59;61.09
26823;BME280;14852;51.910;8.878;2022-10-04T00:12:54;100547.56;;;11.62;60.99
26823;BME280;14852;51.910;8.878;2022-10-04T00:15:26;100549.69;;;11.73;60.71
26823;BME280;14852;51.910;8.878;2022-10-04T00:26:01;100531.53;;;11.71;60.85
26823;BME280;14852;51.910;8.878;2022-10-04T00:31:34;100522.72;;;11.75;61.01
26823;BME280;14852;51.910;8.878;2022-10-04T00:36:50;100519.94;;;11.78;61.23
26823;BME280;14852;51.910;8.878;2022-10-04T00:39:23;100525.75;;;11.85;60.97
26823;BME280;14852;51.910;8.878;2022-10-04T00:50:20;100523.81;;;11.88;61.01
26823;BME280;14852;51.910;8.878;2022-10-04T00:52:56;100525.75;;;11.85;60.86
26823;BME280;14852;51.910;8.878;2022-10-04T00:55:36;100523.91;;;11.87;61.22
26823;BME280;14852;51.910;8.878;2022-10-04T00:58:13;100518.53;;;11.90;61.18
26823;BME280;14852;51.910;8.878;2022-10-04T01:00:42;100508.28;;;11.87;61.03
26823;BME280;14852;51.910;8.878;2022-10-04T01:03:37;100508.00;;;11.93;61.42
26823;BME280;14852;51.910;8.878;2022-10-04T01:06:06;100513.19;;;11.93;61.46
26823;BME280;14852;51.910;8.878;2022-10-04T01:08:39;100517.38;;;11.97;61.20
26823;BME280;14852;51.910;8.878;2022-10-04T01:11:46;100504.81;;;12.05;61.31
26823;BME280;14852;51.910;8.878;2022-10-04T01:14:35;100493.69;;;12.02;60.89
26823;BME280;14852;51.910;8.878;2022-10-04T01:20:37;100501.94;;;11.92;61.11
26823;BME280;14852;51.910;8.878;2022-10-04T01:23:04;100501.09;;;11.92;61.30
26823;BME280;14852;51.910;8.878;2022-10-04T01:25:49;100497.38;;;11.98;61.15
26823;BME280;14852;51.910;8.878;2022-10-04T01:28:15;100484.97;;;12.03;61.58
26823;BME280;14852;51.910;8.878;2022-10-04T01:30:42;100482.28;;;12.04;61.26
26823;BME280;14852;51.910;8.878;2022-10-04T01:33:08;100482.09;;;12.09;61.32
26823;BME280;14852;51.910;8.878;2022-10-04T01:35:37;100494.88;;;12.13;61.27
26823;BME280;14852;51.910;8.878;2022-10-04T01:38:04;100478.06;;;12.20;61.39
26823;BME280;14852;51.910;8.878;2022-10-04T01:40:38;100471.75;;;12.24;61.45
26823;BME280;14852;51.910;8.878;2022-10-04T01:43:10;100472.47;;;12.28;61.25
26823;BME280;14852;51.910;8.878;2022-10-04T01:45:47;100466.22;;;12.32;61.34
26823;BME280;14852;51.910;8.878;2022-10-04T01:48:20;100462.53;;;12.36;61.10
26823;BME280;14852;51.910;8.878;2022-10-04T01:50:56;100466.69;;;12.40;61.24
26823;BME280;14852;51.910;8.878;2022-10-04T01:53:30;100464.06;;;12.40;61.38
26823;BME280;14852;51.910;8.878;2022-10-04T01:56:17;100456.25;;;12.40;61.37
26823;BME280;14852;51.910;8.878;2022-10-04T01:58:49;100465.91;;;12.38;61.41
26823;BME280;14852;51.910;8.878;2022-10-04T02:04:18;100451.56;;;12.47;61.26
26823;BME280;14852;51.910;8.878;2022-10-04T02:06:47;100448.44;;;12.40;61.56
26823;BME280;14852;51.910;8.878;2022-10-04T02:09:33;100448.75;;;12.34;61.39
26823;BME280;14852;51.910;8.878;2022-10-04T02:12:00;100451.50;;;12.31;61.61
26823;BME280;14852;51.910;8.878;2022-10-04T02:14:31;100454.78;;;12.34;61.86
26823;BME280;14852;51.910;8.878;2022-10-04T02:17:04;100444.97;;;12.40;61.69
26823;BME280;14852;51.910;8.878;2022-10-04T02:19:36;100444.06;;;12.41;61.75
26823;BME280;14852;51.910;8.878;2022-10-04T02:22:06;100432.09;;;12.37;61.95
26823;BME280;14852;51.910;8.878;2022-10-04T02:24:40;100438.22;;;12.36;61.86
26823;BME280;14852;51.910;8.878;2022-10-04T02:27:07;100445.91;;;12.39;61.75
26823;BME280;14852;51.910;8.878;2022-10-04T02:29:33;100439.63;;;12.43;61.53
26823;BME280;14852;51.910;8.878;2022-10-04T02:31:59;100441.97;;;12.47;61.89
26823;BME280;14852;51.910;8.878;2022-10-04T02:34:45;100437.41;;;12.52;61.64
26823;BME280;14852;51.910;8.878;2022-10-04T02:37:12;100439.25;;;12.50;61.79
26823;BME280;14852;51.910;8.878;2022-10-04T02:39:47;100444.69;;;12.46;61.37
26823;BME280;14852;51.910;8.878;2022-10-04T02:44:57;100429.56;;;12.35;61.85
26823;BME280;14852;51.910;8.878;2022-10-04T02:47:39;100428.72;;;12.34;62.21
26823;BME280;14852;51.910;8.878;2022-10-04T02:50:32;100431.50;;;12.31;62.21
26823;BME280;14852;51.910;8.878;2022-10-04T02:53:20;100428.88;;;12.31;61.98
26823;BME280;14852;51.910;8.878;2022-10-04T02:55:49;100417.81;;;12.26;62.25
26823;BME280;14852;51.910;8.878;2022-10-04T02:58:18;100419.75;;;12.23;62.01
26823;BME280;14852;51.910;8.878;2022-10-04T03:00:50;100422.38;;;12.23;62.20
26823;BME280;14852;51.910;8.878;2022-10-04T03:03:32;100421.28;;;12.27;62.41
26823;BME280;14852;51.910;8.878;2022-10-04T03:06:13;100424.59;;;12.30;62.14
26823;BME280;14852;51.910;8.878;2022-10-04T03:11:09;100410.66;;;12.31;61.95
26823;BME280;14852;51.910;8.878;2022-10-04T03:13:38;100411.31;;;12.35;62.20
26823;BME280;14852;51.910;8.878;2022-10-04T03:16:06;100409.41;;;12.39;62.07
26823;BME280;14852;51.910;8.878;2022-10-04T03:18:34;100405.81;;;12.41;62.09
26823;BME280;14852;51.910;8.878;2022-10-04T03:21:06;100411.72;;;12.45;61.92
26823;BME280;14852;51.910;8.878;2022-10-04T03:23:33;100415.84;;;12.49;62.08
26823;BME280;14852;51.910;8.878;2022-10-04T03:28:38;100416.56;;;12.52;61.77
26823;BME280;14852;51.910;8.878;2022-10-04T03:31:04;100408.88;;;12.49;61.94
26823;BME280;14852;51.910;8.878;2022-10-04T03:33:30;100408.09;;;12.47;62.26
26823;BME280;14852;51.910;8.878;2022-10-04T03:35:59;100410.72;;;12.47;62.01
26823;BME280;14852;51.910;8.878;2022-10-04T03:38:26;100408.94;;;12.48;62.19
26823;BME280;14852;51.910;8.878;2022-10-04T03:40:58;100404.50;;;12.50;62.42
26823;BME280;14852;51.910;8.878;2022-10-04T03:43:28;100402.81;;;12.49;62.15
26823;BME280;14852;51.910;8.878;2022-10-04T03:46:00;100395.97;;;12.46;62.35
26823;BME280;14852;51.910;8.878;2022-10-04T03:48:48;100394.41;;;12.44;62.17
26823;BME280;14852;51.910;8.878;2022-10-04T03:51:22;100399.69;;;12.42;62.11
26823;BME280;14852;51.910;8.878;2022-10-04T03:53:52;100396.31;;;12.40;62.46
26823;BME280;14852;51.910;8.878;2022-10-04T03:56:30;100392.94;;;12.38;62.27
26823;BME280;14852;51.910;8.878;2022-10-04T03:58:56;100387.84;;;12.35;62.28
26823;BME280;14852;51.910;8.878;2022-10-04T04:01:46;100386.28;;;12.32;62.25
26823;BME280;14852;51.910;8.878;2022-10-04T04:04:46;100387.34;;;12.28;62.35
26823;BME280;14852;51.910;8.878;2022-10-04T04:07:25;100385.72;;;12.26;62.41
26823;BME280;14852;51.910;8.878;2022-10-04T04:10:25;100390.94;;;12.26;62.36
26823;BME280;14852;51.910;8.878;2022-10-04T04:15:37;100380.75;;;12.21;62.58
26823;BME280;14852;51.910;8.878;2022-10-04T04:18:18;100382.59;;;12.19;62.23
26823;BME280;14852;51.910;8.878;2022-10-04T04:20:45;100376.66;;;12.16;62.55
26823;BME280;14852;51.910;8.878;2022-10-04T04:25:54;100379.41;;;12.13;62.39
26823;BME280;14852;51.910;8.878;2022-10-04T04:28:34;100377.66;;;12.13;62.79
26823;BME280;14852;51.910;8.878;2022-10-04T04:31:12;100374.19;;;12.13;62.52
26823;BME280;14852;51.910;8.878;2022-10-04T04:33:57;100375.97;;;12.12;62.55
26823;BME280;14852;51.910;8.878;2022-10-04T04:36:26;100371.47;;;12.16;62.29
26823;BME280;14852;51.910;8.878;2022-10-04T04:38:53;100364.81;;;12.10;62.72
26823;BME280;14852;51.910;8.878;2022-10-04T04:41:38;100364.94;;;12.07;62.62
26823;BME280;14852;51.910;8.878;2022-10-04T04:44:16;100359.66;;;12.09;62.68
26823;BME280;14852;51.910;8.878;2022-10-04T04:46:44;100352.84;;;12.06;62.69
26823;BME280;14852;51.910;8.878;2022-10-04T04:49:11;100347.56;;;12.08;63.12
26823;BME280;14852;51.910;8.878;2022-10-04T04:51:40;100354.38;;;12.10;62.73
26823;BME280;14852;51.910;8.878;2022-10-04T04:54:11;100360.19;;;12.15;63.10
26823;BME280;14852;51.910;8.878;2022-10-04T04:56:37;100366.81;;;12.22;62.84
26823;BME280;14852;51.910;8.878;2022-10-04T04:59:05;100365.56;;;12.29;62.89
26823;BME280;14852;51.910;8.878;2022-10-04T05:01:46;100369.47;;;12.38;62.50
26823;BME280;14852;51.910;8.878;2022-10-04T05:06:47;100379.53;;;12.46;62.82
26823;BME280;14852;51.910;8.878;2022-10-04T05:09:31;100382.88;;;12.48;62.78
26823;BME280;14852;51.910;8.878;2022-10-04T05:12:15;100383.50;;;12.53;62.28
26823;BME280;14852;51.910;8.878;2022-10-04T05:14:48;100380.97;;;12.51;62.63
26823;BME280;14852;51.910;8.878;2022-10-04T05:17:28;100389.56;;;12.53;62.43
26823;BME280;14852;51.910;8.878;2022-10-04T05:19:58;100389.41;;;12.56;62.53
26823;BME280;14852;51.910;8.878;2022-10-04T05:22:26;100384.81;;;12.61;62.48
26823;BME280;14852;51.910;8.878;2022-10-04T05:25:02;100379.44;;;12.64;62.40
26823;BME280;14852;51.910;8.878;2022-10-04T05:27:40;100386.50;;;12.62;62.47
26823;BME280;14852;51.910;8.878;2022-10-04T05:33:23;100379.00;;;12.56;62.91
26823;BME280;14852;51.910;8.878;2022-10-04T05:36:23;100371.53;;;12.49;62.73
26823;BME280;14852;51.910;8.878;2022-10-04T05:39:08;100381.97;;;12.49;62.71
26823;BME280;14852;51.910;8.878;2022-10-04T05:44:34;100381.19;;;12.47;62.93
26823;BME280;14852;51.910;8.878;2022-10-04T05:47:01;100378.69;;;12.45;62.82
26823;BME280;14852;51.910;8.878;2022-10-04T05:49:43;100378.59;;;12.47;62.77
26823;BME280;14852;51.910;8.878;2022-10-04T05:52:34;100375.25;;;12.45;62.90
26823;BME280;14852;51.910;8.878;2022-10-04T06:00:41;100371.69;;;12.28;62.87
26823;BME280;14852;51.910;8.878;2022-10-04T06:07:03;100377.53;;;12.33;62.57
26823;BME280;14852;51.910;8.878;2022-10-04T06:12:50;100372.53;;;12.46;62.17
26823;BME280;14852;51.910;8.878;2022-10-04T06:16:03;100390.63;;;12.66;61.87
26823;BME280;14852;51.910;8.878;2022-10-04T06:22:17;100390.78;;;13.94;59.25
26823;BME280;14852;51.910;8.878;2022-10-04T06:27:39;100389.19;;;15.23;56.30
26823;BME280;14852;51.910;8.878;2022-10-04T06:30:19;100385.88;;;15.77;54.74
26823;BME280;14852;51.910;8.878;2022-10-04T06:36:56;100383.66;;;17.15;52.93
26823;BME280;14852;51.910;8.878;2022-10-04T06:39:42;100387.63;;;17.08;52.45
26823;BME280;14852;51.910;8.878;2022-10-04T06:49:03;100394.75;;;15.19;57.53
26823;BME280;14852;51.910;8.878;2022-10-04T06:58:02;100387.16;;;14.42;59.34
26823;BME280;14852;51.910;8.878;2022-10-04T07:00:51;100379.34;;;14.56;59.06
26823;BME280;14852;51.910;8.878;2022-10-04T07:03:46;100374.78;;;14.60;59.07
26823;BME280;14852;51.910;8.878;2022-10-04T07:06:25;100373.38;;;14.68;59.05
26823;BME280;14852;51.910;8.878;2022-10-04T07:08:53;100366.22;;;15.00;58.21
26823;BME280;14852;51.910;8.878;2022-10-04T07:12:09;100365.94;;;15.33;57.69
26823;BME280;14852;51.910;8.878;2022-10-04T07:14:47;100367.38;;;15.51;57.19
26823;BME280;14852;51.910;8.878;2022-10-04T07:17:23;100366.56;;;15.65;56.89
26823;BME280;14852;51.910;8.878;2022-10-04T07:19:52;100364.00;;;15.78;56.69
26823;BME280;14852;51.910;8.878;2022-10-04T07:22:40;100366.69;;;16.43;55.67
26823;BME280;14852;51.910;8.878;2022-10-04T07:25:26;100367.09;;;17.51;53.26
26823;BME280;14852;51.910;8.878;2022-10-04T07:28:09;100359.25;;;18.22;51.46
26823;BME280;14852;51.910;8.878;2022-10-04T07:31:12;100363.13;;;18.75;50.77
26823;BME280;14852;51.910;8.878;2022-10-04T07:33:44;100363.75;;;18.90;51.68
26823;BME280;14852;51.910;8.878;2022-10-04T07:36:18;100362.19;;;18.99;51.15
26823;BME280;14852;51.910;8.878;2022-10-04T07:39:06;100371.53;;;19.59;50.50
26823;BME280;14852;51.910;8.878;2022-10-04T07:41:42;100358.63;;;20.08;48.68
26823;BME280;14852;51.910;8.878;2022-10-04T07:49:38;100367.50;;;21.91;46.20
26823;BME280;14852;51.910;8.878;2022-10-04T07:52:48;100361.34;;;22.78;45.21
26823;BME280;14852;51.910;8.878;2022-10-04T07:58:20;100358.78;;;23.77;43.76
26823;BME280;14852;51.910;8.878;2022-10-04T08:04:20;100361.13;;;24.95;41.92
26823;BME280;14852;51.910;8.878;2022-10-04T08:07:00;100353.63;;;24.47;43.06
26823;BME280;14852;51.910;8.878;2022-10-04T08:10:08;100359.13;;;22.54;46.81
26823;BME280;14852;51.910;8.878;2022-10-04T08:17:06;100367.78;;;19.50;52.09
26823;BME280;14852;51.910;8.878;2022-10-04T08:27:57;100363.81;;;21.54;47.91
26823;BME280;14852;51.910;8.878;2022-10-04T08:31:26;100359.00;;;23.39;44.39
26823;BME280;14852;51.910;8.878;2022-10-04T08:37:06;100349.72;;;23.98;43.01
26823;BME280;14852;51.910;8.878;2022-10-04T08:53:05;100326.28;;;28.18;37.59
26823;BME280;14852;51.910;8.878;2022-10-04T09:02:05;100320.50;;;28.96;36.95
26823;BME280;14852;51.910;8.878;2022-10-04T09:04:50;100316.31;;;29.23;36.25
26823;BME280;14852;51.910;8.878;2022-10-04T09:07:53;100320.06;;;29.58;36.51
26823;BME280;14852;51.910;8.878;2022-10-04T09:19:19;100305.31;;;29.90;36.02
26823;BME280;14852;51.910;8.878;2022-10-04T09:27:56;100305.84;;;28.92;36.20
26823;BME280;14852;51.910;8.878;2022-10-04T09:39:19;100301.25;;;25.83;41.70
26823;BME280;14852;51.910;8.878;2022-10-04T09:42:51;100291.69;;;25.56;42.96
26823;BME280;14852;51.910;8.878;2022-10-04T09:55:43;100290.13;;;25.30;43.10
26823;BME280;14852;51.910;8.878;2022-10-04T09:59:12;100289.38;;;25.03;42.47
26823;BME280;14852;51.910;8.878;2022-10-04T10:04:27;100279.44;;;25.13;42.25
26823;BME280;14852;51.910;8.878;2022-10-04T10:07:30;100276.28;;;25.10;42.19
26823;BME280;14852;51.910;8.878;2022-10-04T10:16:27;100265.88;;;24.90;43.22
26823;BME280;14852;51.910;8.878;2022-10-04T10:22:12;100259.50;;;24.49;41.97
26823;BME280;14852;51.910;8.878;2022-10-04T10:25:45;100254.56;;;24.29;42.25
26823;BME280;14852;51.910;8.878;2022-10-04T10:37:12;100251.91;;;23.85;41.45
26823;BME280;14852;51.910;8.878;2022-10-04T10:43:07;100254.03;;;23.81;42.05
26823;BME280;14852;51.910;8.878;2022-10-04T10:45:59;100253.84;;;24.01;40.44
26823;BME280;14852;51.910;8.878;2022-10-04T10:58:04;100253.00;;;24.00;41.18
26823;BME280;14852;51.910;8.878;2022-10-04T11:05:06;100233.19;;;24.12;41.04
26823;BME280;14852;51.910;8.878;2022-10-04T11:10:37;100235.84;;;24.12;40.91
26823;BME280;14852;51.910;8.878;2022-10-04T11:31:31;100222.94;;;23.74;39.65
26823;BME280;14852;51.910;8.878;2022-10-04T11:34:44;100234.16;;;23.68;40.13
26823;BME280;14852;51.910;8.878;2022-10-04T11:43:34;100212.69;;;23.43;39.71
26823;BME280;14852;51.910;8.878;2022-10-04T11:46:37;100221.81;;;23.41;39.71
26823;BME280;14852;51.910;8.878;2022-10-04T11:49:28;100210.81;;;23.36;39.78
26823;BME280;14852;51.910;8.878;2022-10-04T11:52:52;100211.63;;;23.36;39.79
26823;BME280;14852;51.910;8.878;2022-10-04T12:05:06;100201.47;;;23.32;40.11
26823;BME280;14852;51.910;8.878;2022-10-04T12:10:42;100195.63;;;23.10;39.72
26823;BME280;14852;51.910;8.878;2022-10-04T12:31:14;100163.03;;;22.73;39.60
26823;BME280;14852;51.910;8.878;2022-10-04T12:45:49;100145.31;;;22.56;39.94
26823;BME280;14852;51.910;8.878;2022-10-04T12:51:42;100129.34;;;22.48;39.86
26823;BME280;14852;51.910;8.878;2022-10-04T12:54:31;100129.13;;;22.31;39.91
26823;BME280;14852;51.910;8.878;2022-10-04T13:00:22;100126.09;;;22.26;39.88
26823;BME280;14852;51.910;8.878;2022-10-04T13:03:23;100130.69;;;22.24;40.36
26823;BME280;14852;51.910;8.878;2022-10-04T13:06:19;100132.78;;;22.21;40.40
26823;BME280;14852;51.910;8.878;2022-10-04T13:11:40;100123.97;;;22.30;40.15
26823;BME280;14852;51.910;8.878;2022-10-04T13:17:45;100112.88;;;22.17;40.44
26823;BME280;14852;51.910;8.878;2022-10-04T13:26:58;100104.75;;;22.00;40.39
26823;BME280;14852;51.910;8.878;2022-10-04T13:29:34;100111.00;;;21.99;40.79
26823;BME280;14852;51.910;8.878;2022-10-04T13:32:23;100103.91;;;22.00;40.97
26823;BME280;14852;51.910;8.878;2022-10-04T13:57:17;100075.88;;;21.97;41.18
26823;BME280;14852;51.910;8.878;2022-10-04T14:00:04;100078.28;;;22.00;41.52
26823;BME280;14852;51.910;8.878;2022-10-04T14:06:04;100069.66;;;21.98;41.45
26823;BME280;14852;51.910;8.878;2022-10-04T14:27:35;100055.59;;;21.88;42.16
26823;BME280;14852;51.910;8.878;2022-10-04T14:40:11;100053.66;;;21.81;42.79
26823;BME280;14852;51.910;8.878;2022-10-04T14:51:23;100049.53;;;21.68;43.07
26823;BME280;14852;51.910;8.878;2022-10-04T14:59:57;100063.88;;;21.66;43.13
26823;BME280;14852;51.910;8.878;2022-10-04T15:08:24;100056.97;;;21.55;43.35
26823;BME280;14852;51.910;8.878;2022-10-04T15:11:11;100055.00;;;21.48;43.50
26823;BME280;14852;51.910;8.878;2022-10-04T15:13:57;100051.97;;;21.43;43.52
26823;BME280;14852;51.910;8.878;2022-10-04T15:22:37;100039.72;;;21.42;43.54
26823;BME280;14852;51.910;8.878;2022-10-04T15:28:25;100034.31;;;21.34;44.32
26823;BME280;14852;51.910;8.878;2022-10-04T15:31:18;100023.06;;;21.31;44.12
26823;BME280;14852;51.910;8.878;2022-10-04T15:34:03;100013.88;;;21.26;44.54
26823;BME280;14852;51.910;8.878;2022-10-04T15:42:37;100014.28;;;21.12;44.56
26823;BME280;14852;51.910;8.878;2022-10-04T15:54:42;100020.84;;;20.98;45.51
26823;BME280;14852;51.910;8.878;2022-10-04T16:06:08;100023.47;;;20.69;46.51
26823;BME280;14852;51.910;8.878;2022-10-04T16:15:19;100050.69;;;20.41;46.74
26823;BME280;14852;51.910;8.878;2022-10-04T16:32:30;100036.56;;;19.81;47.75
26823;BME280;14852;51.910;8.878;2022-10-04T16:35:22;100048.75;;;19.72;47.72
26823;BME280;14852;51.910;8.878;2022-10-04T16:40:57;100051.41;;;19.51;48.34
26823;BME280;14852;51.910;8.878;2022-10-04T16:43:27;100053.34;;;19.38;48.51
26823;BME280;14852;51.910;8.878;2022-10-04T16:46:24;100063.72;;;19.30;48.67
26823;BME280;14852;51.910;8.878;2022-10-04T16:49:22;100057.91;;;19.15;48.80
26823;BME280;14852;51.910;8.878;2022-10-04T16:52:22;100063.13;;;19.06;48.88
26823;BME280;14852;51.910;8.878;2022-10-04T16:55:15;100063.03;;;18.96;49.37
26823;BME280;14852;51.910;8.878;2022-10-04T17:09:58;100054.97;;;18.34;50.51
26823;BME280;14852;51.910;8.878;2022-10-04T17:13:22;100054.00;;;18.24;50.24
26823;BME280;14852;51.910;8.878;2022-10-04T17:16:12;100052.47;;;18.10;50.91
26823;BME280;14852;51.910;8.878;2022-10-04T17:19:13;100059.28;;;18.01;51.00
26823;BME280;14852;51.910;8.878;2022-10-04T17:28:11;100072.16;;;17.71;51.17
26823;BME280;14852;51.910;8.878;2022-10-04T17:31:21;100081.22;;;17.67;51.44
26823;BME280;14852;51.910;8.878;2022-10-04T17:34:35;100069.63;;;17.58;51.81
26823;BME280;14852;51.910;8.878;2022-10-04T17:37:25;100067.19;;;17.44;51.81
26823;BME280;14852;51.910;8.878;2022-10-04T17:43:10;100062.16;;;17.30;52.25
26823;BME280;14852;51.910;8.878;2022-10-04T17:46:08;100056.63;;;17.22;52.11
26823;BME280;14852;51.910;8.878;2022-10-04T17:48:55;100062.69;;;17.11;52.49
26823;BME280;14852;51.910;8.878;2022-10-04T17:51:47;100078.06;;;17.05;52.22
26823;BME280;14852;51.910;8.878;2022-10-04T17:54:42;100066.69;;;16.93;52.89
26823;BME280;14852;51.910;8.878;2022-10-04T18:00:10;100065.63;;;16.72;53.35
26823;BME280;14852;51.910;8.878;2022-10-04T18:05:20;100058.72;;;16.58;53.57
26823;BME280;14852;51.910;8.878;2022-10-04T18:07:55;100060.94;;;16.51;53.51
26823;BME280;14852;51.910;8.878;2022-10-04T18:10:38;100062.34;;;16.44;53.83
26823;BME280;14852;51.910;8.878;2022-10-04T18:13:24;100055.03;;;16.37;53.33
26823;BME280;14852;51.910;8.878;2022-10-04T18:16:48;100065.63;;;16.35;53.59
26823;BME280;14852;51.910;8.878;2022-10-04T18:19:42;100066.59;;;16.21;53.86
26823;BME280;14852;51.910;8.878;2022-10-04T18:22:22;100072.81;;;16.08;53.78
26823;BME280;14852;51.910;8.878;2022-10-04T18:25:18;100072.41;;;16.01;54.39
26823;BME280;14852;51.910;8.878;2022-10-04T18:27:50;100072.41;;;15.88;54.19
26823;BME280;14852;51.910;8.878;2022-10-04T18:30:19;100063.19;;;15.83;54.56
26823;BME280;14852;51.910;8.878;2022-10-04T18:32:54;100072.31;;;15.77;54.60
26823;BME280;14852;51.910;8.878;2022-10-04T18:35:31;100068.66;;;15.67;54.94
26823;BME280;14852;51.910;8.878;2022-10-04T18:40:39;100074.91;;;15.52;54.77
26823;BME280;14852;51.910;8.878;2022-10-04T18:46:19;100083.44;;;15.55;54.72
26823;BME280;14852;51.910;8.878;2022-10-04T18:49:16;100080.03;;;15.53;54.85
26823;BME280;14852;51.910;8.878;2022-10-04T18:57:35;100090.88;;;15.35;54.58
26823;BME280;14852;51.910;8.878;2022-10-04T19:00:29;100090.66;;;15.25;55.09
26823;BME280;14852;51.910;8.878;2022-10-04T19:03:49;100071.94;;;15.18;55.04
26823;BME280;14852;51.910;8.878;2022-10-04T19:06:32;100081.84;;;15.13;55.31
26823;BME280;14852;51.910;8.878;2022-10-04T19:09:30;100089.94;;;15.10;54.90
26823;BME280;14852;51.910;8.878;2022-10-04T19:12:15;100091.91;;;15.07;54.97
26823;BME280;14852;51.910;8.878;2022-10-04T19:14:56;100085.91;;;15.05;55.15
26823;BME280;14852;51.910;8.878;2022-10-04T19:17:32;100088.63;;;15.03;55.00
26823;BME280;14852;51.910;8.878;2022-10-04T19:20:12;100092.09;;;15.04;55.57
26823;BME280;14852;51.910;8.878;2022-10-04T19:23:04;100089.38;;;15.05;55.07
26823;BME280;14852;51.910;8.878;2022-10-04T19:25:44;100081.94;;;14.99;55.03
26823;BME280;14852;51.910;8.878;2022-10-04T19:28:22;100087.66;;;14.92;55.36
26823;BME280;14852;51.910;8.878;2022-10-04T19:34:10;100101.47;;;14.94;55.34
26823;BME280;14852;51.910;8.878;2022-10-04T19:37:18;100097.09;;;14.94;55.33
26823;BME280;14852;51.910;8.878;2022-10-04T19:42:52;100099.69;;;14.94;54.97
26823;BME280;14852;51.910;8.878;2022-10-04T19:46:14;100103.34;;;14.92;55.19
26823;BME280;14852;51.910;8.878;2022-10-04T19:48:49;100103.94;;;14.82;55.33
26823;BME280;14852;51.910;8.878;2022-10-04T19:51:37;100102.34;;;14.80;55.56
26823;BME280;14852;51.910;8.878;2022-10-04T19:54:13;100092.94;;;14.77;55.33
26823;BME280;14852;51.910;8.878;2022-10-04T19:56:45;100095.75;;;14.74;55.44
26823;BME280;14852;51.910;8.878;2022-10-04T19:59:17;100095.13;;;14.71;55.62
26823;BME280;14852;51.910;8.878;2022-10-04T20:01:45;100092.91;;;14.65;55.46
26823;BME280;14852;51.910;8.878;2022-10-04T20:04:16;100073.09;;;14.61;55.98
26823;BME280;14852;51.910;8.878;2022-10-04T20:07:25;100065.63;;;14.55;56.20
26823;BME280;14852;51.910;8.878;2022-10-04T20:10:31;100070.34;;;14.49;56.34
26823;BME280;14852;51.910;8.878;2022-10-04T20:17:59;100068.56;;;14.36;56.43
26823;BME280;14852;51.910;8.878;2022-10-04T20:23:08;100067.16;;;14.44;56.45
26823;BME280;14852;51.910;8.878;2022-10-04T20:30:54;100074.03;;;14.60;56.13
26823;BME280;14852;51.910;8.878;2022-10-04T20:36:08;100054.69;;;14.62;56.19
26823;BME280;14852;51.910;8.878;2022-10-04T20:39:00;100062.22;;;14.67;55.85
26823;BME280;14852;51.910;8.878;2022-10-04T20:47:30;100068.66;;;14.75;56.22
26823;BME280;14852;51.910;8.878;2022-10-04T20:49:59;100069.59;;;14.74;55.96
26823;BME280;14852;51.910;8.878;2022-10-04T20:52:31;100068.13;;;14.70;55.86
26823;BME280;14852;51.910;8.878;2022-10-04T20:54:59;100072.59;;;14.68;55.86
26823;BME280;14852;51.910;8.878;2022-10-04T20:57:31;100070.41;;;14.62;55.96
26823;BME280;14852;51.910;8.878;2022-10-04T20:59:57;100076.75;;;14.58;56.32
26823;BME280;14852;51.910;8.878;2022-10-04T21:02:24;100074.22;;;14.57;56.21
26823;BME280;14852;51.910;8.878;2022-10-04T21:04:52;100070.75;;;14.56;56.05
26823;BME280;14852;51.910;8.878;2022-10-04T21:07:22;100066.59;;;14.54;56.29
26823;BME280;14852;51.910;8.878;2022-10-04T21:09:48;100063.41;;;14.48;56.34
26823;BME280;14852;51.910;8.878;2022-10-04T21:12:30;100062.69;;;14.46;56.43
26823;BME280;14852;51.910;8.878;2022-10-04T21:15:03;100060.47;;;14.40;56.85
26823;BME280;14852;51.910;8.878;2022-10-04T21:19:55;100057.00;;;14.40;56.48
26823;BME280;14852;51.910;8.878;2022-10-04T21:25:27;100049.06;;;14.41;56.53
26823;BME280;14852;51.910;8.878;2022-10-04T21:27:52;100037.28;;;14.34;56.39
26823;BME280;14852;51.910;8.878;2022-10-04T21:30:18;100039.34;;;14.29;56.62
26823;BME280;14852;51.910;8.878;2022-10-04T21:32:45;100036.00;;;14.27;56.77
26823;BME280;14852;51.910;8.878;2022-10-04T21:35:11;100039.63;;;14.25;56.83
26823;BME280;14852;51.910;8.878;2022-10-04T21:37:37;100037.69;;;14.28;57.03
26823;BME280;14852;51.910;8.878;2022-10-04T21:40:05;100047.53;;;14.37;56.34
26823;BME280;14852;51.910;8.878;2022-10-04T21:42:31;100045.31;;;14.45;56.52
26823;BME280;14852;51.910;8.878;2022-10-04T21:44:57;100039.59;;;14.53;56.35
26823;BME280;14852;51.910;8.878;2022-10-04T21:47:23;100042.75;;;14.58;56.27
26823;BME280;14852;51.910;8.878;2022-10-04T21:49:50;100033.13;;;14.59;56.21
26823;BME280;14852;51.910;8.878;2022-10-04T21:52:20;100025.09;;;14.62;56.49
26823;BME280;14852;51.910;8.878;2022-10-04T21:54:45;100019.53;;;14.66;56.27
26823;BME280;14852;51.910;8.878;2022-10-04T21:57:12;100022.81;;;14.70;56.58
26823;BME280;14852;51.910;8.878;2022-10-04T21:59:38;100027.66;;;14.76;56.31
26823;BME280;14852;51.910;8.878;2022-10-04T22:02:04;100031.53;;;14.83;56.24
26823;BME280;14852;51.910;8.878;2022-10-04T22:04:32;100028.41;;;14.91;56.00
26823;BME280;14852;51.910;8.878;2022-10-04T22:06:57;100030.00;;;14.93;56.14
26823;BME280;14852;51.910;8.878;2022-10-04T22:09:23;100023.53;;;14.99;56.13
26823;BME280;14852;51.910;8.878;2022-10-04T22:11:49;100031.81;;;15.05;55.88
26823;BME280;14852;51.910;8.878;2022-10-04T22:14:15;100042.81;;;15.10;56.02